createdAt,value
2018-02-25T00:00:22.623Z,-4.40
2018-02-25T00:02:50.695Z,-4.40
2018-02-25T00:05:23.139Z,-4.40
2018-02-25T00:07:51.720Z,-4.40
2018-02-25T00:10:20.262Z,-4.40
2018-02-25T00:12:48.890Z,-4.40
2018-02-25T00:15:21.038Z,-4.40
2018-02-25T00:17:58.716Z,-4.40
2018-02-25T00:20:26.947Z,-4.40
2018-02-25T00:23:03.539Z,-4.50
2018-02-25T00:25:36.333Z,-4.40
2018-02-25T00:28:04.156Z,-4.50
2018-02-25T00:30:34.889Z,-4.60
2018-02-25T00:33:02.429Z,-4.60
2018-02-25T00:35:30.424Z,-4.60
2018-02-25T00:37:57.970Z,-4.70
2018-02-25T00:40:26.778Z,-4.70
2018-02-25T00:42:55.360Z,-4.70
2018-02-25T00:45:23.658Z,-4.70
2018-02-25T00:47:51.611Z,-4.70
2018-02-25T00:50:19.106Z,-4.70
2018-02-25T00:52:47.032Z,-4.70
2018-02-25T00:55:14.631Z,-4.70
2018-02-25T00:57:42.142Z,-4.80
2018-02-25T01:02:48.491Z,-4.80
2018-02-25T01:05:15.984Z,-4.80
2018-02-25T01:07:43.495Z,-4.90
2018-02-25T01:10:10.992Z,-4.80
2018-02-25T01:12:38.609Z,-4.90
2018-02-25T01:15:09.396Z,-4.90
2018-02-25T01:17:36.993Z,-4.90
2018-02-25T01:20:05.268Z,-5.00
2018-02-25T01:22:36.153Z,-5.00
2018-02-25T01:25:07.233Z,-5.10
2018-02-25T01:27:41.825Z,-5.10
2018-02-25T01:30:09.435Z,-5.10
2018-02-25T01:32:36.984Z,-5.00
2018-02-25T01:35:04.545Z,-5.00
2018-02-25T01:37:37.718Z,-5.00
2018-02-25T01:40:06.781Z,-5.00
2018-02-25T01:42:35.057Z,-5.00
2018-02-25T01:45:05.877Z,-5.00
2018-02-25T01:47:40.803Z,-4.90
2018-02-25T01:50:08.806Z,-4.90
2018-02-25T01:52:37.970Z,-4.90
2018-02-25T01:55:07.976Z,-4.90
2018-02-25T01:57:37.716Z,-4.90
2018-02-25T02:00:06.397Z,-4.90
2018-02-25T02:02:36.279Z,-5.00
2018-02-25T02:05:05.240Z,-5.00
2018-02-25T02:07:34.693Z,-5.20
2018-02-25T02:10:05.325Z,-5.20
2018-02-25T02:12:38.130Z,-5.20
2018-02-25T02:15:07.262Z,-5.20
2018-02-25T02:17:34.898Z,-5.20
2018-02-25T02:20:07.337Z,-5.10
2018-02-25T02:22:35.621Z,-5.10
2018-02-25T02:25:10.687Z,-5.10
2018-02-25T02:27:38.347Z,-5.10
2018-02-25T02:30:06.772Z,-5.10
2018-02-25T02:32:44.185Z,-5.10
2018-02-25T02:35:11.697Z,-5.20
2018-02-25T02:37:39.312Z,-5.30
2018-02-25T02:40:07.505Z,-5.30
2018-02-25T02:42:35.120Z,-5.30
2018-02-25T02:45:03.299Z,-5.30
2018-02-25T02:47:31.359Z,-5.30
2018-02-25T02:49:59.682Z,-5.30
2018-02-25T02:52:28.729Z,-5.40
2018-02-25T02:54:58.168Z,-5.40
2018-02-25T02:57:26.563Z,-5.40
2018-02-25T02:59:54.226Z,-5.50
2018-02-25T03:02:21.842Z,-5.40
2018-02-25T03:04:50.885Z,-5.50
2018-02-25T03:07:18.484Z,-5.40
2018-02-25T03:09:45.993Z,-5.50
2018-02-25T03:12:13.828Z,-5.50
2018-02-25T03:14:41.409Z,-5.50
2018-02-25T03:17:20.836Z,-5.50
2018-02-25T03:19:48.836Z,-5.60
2018-02-25T03:22:16.305Z,-5.50
2018-02-25T03:24:43.911Z,-5.50
2018-02-25T03:27:35.746Z,-5.50
2018-02-25T03:30:08.084Z,-5.50
2018-02-25T03:32:36.092Z,-5.50
2018-02-25T03:35:04.735Z,-5.50
2018-02-25T03:37:38.018Z,-5.60
2018-02-25T03:40:06.413Z,-5.60
2018-02-25T03:42:35.179Z,-5.60
2018-02-25T03:45:05.557Z,-5.50
2018-02-25T03:47:35.598Z,-5.50
2018-02-25T03:50:06.683Z,-5.50
2018-02-25T03:52:35.191Z,-5.50
2018-02-25T03:55:03.746Z,-5.60
2018-02-25T03:57:33.596Z,-5.60
2018-02-25T04:00:03.426Z,-5.50
2018-02-25T04:02:33.824Z,-5.60
2018-02-25T04:05:03.422Z,-5.70
2018-02-25T04:07:35.651Z,-5.70
2018-02-25T04:10:05.970Z,-5.80
2018-02-25T04:12:36.702Z,-5.60
2018-02-25T04:15:05.716Z,-5.70
2018-02-25T04:17:38.927Z,-5.70
2018-02-25T04:20:07.184Z,-5.80
2018-02-25T04:22:36.410Z,-5.80
2018-02-25T04:25:06.085Z,-5.80
2018-02-25T04:27:36.567Z,-5.80
2018-02-25T04:30:04.155Z,-5.80
2018-02-25T04:32:32.494Z,-5.80
2018-02-25T04:34:59.989Z,-5.80
2018-02-25T04:37:27.493Z,-5.90
2018-02-25T04:39:55.270Z,-5.80
2018-02-25T04:42:22.803Z,-5.90
2018-02-25T04:44:50.812Z,-5.90
2018-02-25T04:47:18.327Z,-5.90
2018-02-25T04:49:48.790Z,-5.90
2018-02-25T04:52:16.360Z,-5.90
2018-02-25T04:54:43.861Z,-5.80
2018-02-25T04:57:11.493Z,-5.80
2018-02-25T04:59:38.996Z,-5.90
2018-02-25T05:02:06.762Z,-5.90
2018-02-25T05:04:35.243Z,-5.90
2018-02-25T05:07:05.580Z,-5.90
2018-02-25T05:09:34.881Z,-5.90
2018-02-25T05:12:05.536Z,-5.80
2018-02-25T05:14:33.780Z,-5.90
2018-02-25T05:17:01.586Z,-5.90
2018-02-25T05:22:15.485Z,-6.10
2018-02-25T05:24:48.797Z,-6.10
2018-02-25T05:27:17.398Z,-6.10
2018-02-25T05:29:45.052Z,-6.30
2018-02-25T05:32:13.926Z,-6.50
2018-02-25T05:34:41.429Z,-6.50
2018-02-25T05:37:09.109Z,-6.40
2018-02-25T05:39:36.685Z,-6.50
2018-02-25T05:42:06.488Z,-6.60
2018-02-25T05:44:34.476Z,-6.60
2018-02-25T05:47:03.051Z,-6.40
2018-02-25T05:52:08.246Z,-6.40
2018-02-25T05:54:39.705Z,-6.30
2018-02-25T05:57:08.032Z,-6.20
2018-02-25T05:59:36.944Z,-6.30
2018-02-25T06:02:04.589Z,-6.30
2018-02-25T06:04:33.501Z,-6.50
2018-02-25T06:07:02.155Z,-6.50
2018-02-25T06:09:29.657Z,-6.50
2018-02-25T06:11:58.033Z,-6.60
2018-02-25T06:14:25.510Z,-6.60
2018-02-25T06:16:53.713Z,-6.70
2018-02-25T06:19:22.003Z,-6.80
2018-02-25T06:22:07.862Z,-6.80
2018-02-25T06:24:35.814Z,-6.80
2018-02-25T06:27:03.408Z,-6.80
2018-02-25T06:29:31.780Z,-6.70
2018-02-25T06:31:59.683Z,-6.70
2018-02-25T06:34:27.178Z,-6.70
2018-02-25T06:36:55.115Z,-6.80
2018-02-25T06:39:22.618Z,-6.80
2018-02-25T06:41:50.087Z,-6.70
2018-02-25T06:44:17.743Z,-6.70
2018-02-25T06:46:45.243Z,-6.70
2018-02-25T06:49:13.321Z,-6.70
2018-02-25T06:51:40.826Z,-6.70
2018-02-25T06:54:08.635Z,-6.60
2018-02-25T06:56:36.510Z,-6.60
2018-02-25T06:59:04.106Z,-6.50
2018-02-25T07:01:33.540Z,-6.50
2018-02-25T07:04:01.034Z,-6.40
2018-02-25T07:06:52.155Z,-6.30
2018-02-25T07:09:19.624Z,-6.30
2018-02-25T07:11:54.784Z,-6.10
2018-02-25T07:14:23.047Z,-5.90
2018-02-25T07:16:50.599Z,-5.90
2018-02-25T07:19:18.077Z,-5.60
2018-02-25T07:21:50.697Z,-5.10
2018-02-25T07:24:33.829Z,-4.70
2018-02-25T07:27:03.683Z,-3.90
2018-02-25T07:29:31.174Z,-3.90
2018-02-25T07:32:01.081Z,-3.80
2018-02-25T07:34:28.956Z,-3.60
2018-02-25T07:36:56.853Z,-3.50
2018-02-25T07:39:26.232Z,-3.40
2018-02-25T07:41:55.091Z,-3.20
2018-02-25T07:44:22.592Z,-3.20
2018-02-25T07:46:50.142Z,-2.90
2018-02-25T07:49:17.922Z,-2.80
2018-02-25T07:51:45.572Z,-2.70
2018-02-25T07:54:15.219Z,-2.50
2018-02-25T07:56:43.558Z,-2.40
2018-02-25T07:59:11.080Z,-2.60
2018-02-25T08:01:38.557Z,-2.40
2018-02-25T08:04:27.336Z,-2.20
2018-02-25T08:06:55.199Z,-2.20
2018-02-25T08:09:22.812Z,-2.10
2018-02-25T08:11:50.292Z,-2.00
2018-02-25T08:14:19.871Z,-1.90
2018-02-25T08:16:51.852Z,-1.80
2018-02-25T08:19:19.380Z,-1.80
2018-02-25T08:21:55.752Z,-1.60
2018-02-25T08:24:24.664Z,-1.70
2018-02-25T08:26:54.093Z,-2.50
2018-02-25T08:29:22.479Z,-2.50
2018-02-25T08:31:49.987Z,-2.80
2018-02-25T08:34:18.321Z,-2.30
2018-02-25T08:36:46.036Z,-2.30
2018-02-25T08:39:14.902Z,-2.10
2018-02-25T08:41:42.401Z,-1.90
2018-02-25T08:44:10.116Z,-1.90
2018-02-25T08:46:38.788Z,-1.80
2018-02-25T08:49:06.539Z,-1.80
2018-02-25T08:51:36.548Z,-1.70
2018-02-25T08:54:04.204Z,-1.70
2018-02-25T08:56:33.428Z,-1.30
2018-02-25T08:59:02.312Z,-1.50
2018-02-25T09:01:35.892Z,-1.20
2018-02-25T09:04:04.315Z,-1.10
2018-02-25T09:06:38.466Z,-1.10
2018-02-25T09:09:08.114Z,-1.00
2018-02-25T09:11:41.737Z,-1.00
2018-02-25T09:17:05.578Z,-1.00
2018-02-25T09:19:37.773Z,-1.00
2018-02-25T09:22:09.432Z,-1.30
2018-02-25T09:24:41.567Z,-1.30
2018-02-25T09:27:33.229Z,-1.00
2018-02-25T09:57:17.056Z,-1.00
2018-02-25T09:59:53.688Z,-0.80
2018-02-25T10:02:34.215Z,-0.50
2018-02-25T10:05:07.081Z,-0.30
2018-02-25T10:07:38.021Z,-0.20
2018-02-25T10:15:34.836Z,-1.10
2018-02-25T10:18:05.078Z,-1.60
2018-02-25T10:20:37.161Z,-1.90
2018-02-25T10:23:07.675Z,-1.90
2018-02-25T10:25:37.281Z,-1.60
2018-02-25T10:28:05.861Z,-1.80
2018-02-25T10:30:40.483Z,-1.70
2018-02-25T10:33:08.974Z,-1.70
2018-02-25T10:41:34.198Z,-1.80
2018-02-25T10:44:21.735Z,-1.50
2018-02-25T10:47:08.990Z,-1.30
2018-02-25T10:49:36.939Z,-1.40
2018-02-25T10:52:06.678Z,-1.30
2018-02-25T10:54:39.215Z,-1.70
2018-02-25T10:57:09.821Z,-1.70
2018-02-25T11:02:33.686Z,-1.10
2018-02-25T11:05:06.162Z,-1.00
2018-02-25T11:07:37.998Z,-1.00
2018-02-25T11:10:05.550Z,-1.10
2018-02-25T11:12:33.677Z,-1.40
2018-02-25T11:15:04.784Z,-1.00
2018-02-25T11:17:35.134Z,-1.00
2018-02-25T11:26:26.579Z,-0.60
2018-02-25T11:28:54.093Z,-0.60
2018-02-25T11:31:31.483Z,-0.80
2018-02-25T11:34:04.536Z,-0.80
2018-02-25T11:36:32.382Z,-0.90
2018-02-25T11:39:09.546Z,-1.20
2018-02-25T11:41:38.543Z,-0.50
2018-02-25T11:44:10.855Z,-0.60
2018-02-25T11:46:39.596Z,-0.50
2018-02-25T11:49:10.441Z,-0.60
2018-02-25T11:51:39.253Z,-0.50
2018-02-25T11:54:30.416Z,-0.40
2018-02-25T11:57:06.191Z,-0.10
2018-02-25T11:59:46.189Z,-0.10
2018-02-25T12:02:16.397Z,0.00
2018-02-25T12:04:56.682Z,-0.20
2018-02-25T12:07:24.523Z,-0.10
2018-02-25T12:10:04.331Z,-0.20
2018-02-25T12:12:32.135Z,-0.10
2018-02-25T12:15:04.548Z,-0.20
2018-02-25T12:17:35.008Z,0.20
2018-02-25T12:20:05.727Z,0.30
2018-02-25T12:22:34.026Z,0.30
2018-02-25T12:25:09.868Z,0.40
2018-02-25T12:27:39.473Z,0.40
2018-02-25T12:30:30.441Z,0.20
2018-02-25T12:33:03.915Z,0.50
2018-02-25T12:35:31.409Z,0.50
2018-02-25T12:38:01.042Z,0.10
2018-02-25T12:40:29.872Z,0.10
2018-02-25T12:42:58.392Z,0.30
2018-02-25T12:45:50.855Z,-0.20
2018-02-25T12:48:18.863Z,-0.20
2018-02-25T12:50:49.091Z,0.00
2018-02-25T12:53:18.693Z,0.40
2018-02-25T12:55:50.659Z,0.40
2018-02-25T12:58:18.650Z,0.20
2018-02-25T13:00:46.857Z,0.10
2018-02-25T13:03:15.160Z,0.00
2018-02-25T13:06:03.723Z,0.00
2018-02-25T13:11:29.790Z,0.00
2018-02-25T13:14:07.894Z,-0.10
2018-02-25T13:16:51.353Z,-0.10
2018-02-25T13:22:31.273Z,-0.20
2018-02-25T13:25:03.983Z,-0.20
2018-02-25T13:27:35.230Z,-0.10
2018-02-25T13:30:09.335Z,-0.30
2018-02-25T13:42:06.015Z,-0.20
2018-02-25T14:08:54.259Z,-0.60
2018-02-25T14:14:35.669Z,-0.60
2018-02-25T14:20:05.719Z,-0.50
2018-02-25T14:34:37.027Z,-0.60
2018-02-25T14:49:04.337Z,-1.30
2018-02-25T14:51:39.921Z,-1.30
2018-02-25T15:00:26.193Z,-1.40
2018-02-25T15:03:02.353Z,-1.20
2018-02-25T15:05:49.912Z,-1.50
2018-02-25T15:11:03.870Z,-1.40
2018-02-25T15:13:35.742Z,-0.80
2018-02-25T15:16:04.701Z,-0.70
2018-02-25T15:18:34.839Z,-0.60
2018-02-25T15:21:06.138Z,-0.50
2018-02-25T15:23:34.158Z,-0.40
2018-02-25T15:32:05.356Z,-0.30
2018-02-25T15:34:33.900Z,-0.30
2018-02-25T15:37:04.753Z,-0.60
2018-02-25T15:39:33.072Z,-0.60
2018-02-25T15:48:34.403Z,-0.70
2018-02-25T15:54:01.615Z,-0.80
2018-02-25T15:56:33.387Z,-0.90
2018-02-25T15:59:03.736Z,-0.90
2018-02-25T16:01:32.969Z,-0.90
2018-02-25T16:04:09.406Z,-1.00
2018-02-25T16:06:37.300Z,-1.10
2018-02-25T16:09:06.962Z,-1.20
2018-02-25T16:11:34.505Z,-1.20
2018-02-25T16:14:06.361Z,-1.30
2018-02-25T16:27:34.870Z,-1.80
2018-02-25T16:32:43.416Z,-1.70
2018-02-25T16:38:07.929Z,-1.90
2018-02-25T16:40:35.427Z,-2.00
2018-02-25T16:52:06.007Z,-2.30
2018-02-25T16:54:35.807Z,-2.30
2018-02-25T16:57:06.208Z,-2.30
2018-02-25T16:59:34.631Z,-2.30
2018-02-25T17:02:06.583Z,-2.40
2018-02-25T17:04:34.619Z,-2.40
2018-02-25T17:13:05.952Z,-2.50
2018-02-25T17:24:05.474Z,-2.50
2018-02-25T17:32:36.645Z,-2.50
2018-02-25T17:52:59.057Z,-2.80
2018-02-25T17:55:33.564Z,-2.70
2018-02-25T17:58:32.001Z,-2.90
2018-02-25T18:01:03.325Z,-2.80
2018-02-25T18:03:35.192Z,-2.80
2018-02-25T18:06:03.787Z,-2.80
2018-02-25T18:08:33.969Z,-2.90
2018-02-25T18:11:03.309Z,-2.90
2018-02-25T18:13:34.442Z,-3.00
2018-02-25T18:16:03.601Z,-3.20
2018-02-25T18:25:31.772Z,-3.20
2018-02-25T18:28:03.973Z,-3.30
2018-02-25T18:30:36.657Z,-3.40
2018-02-25T18:37:35.520Z,-3.40
2018-02-25T18:40:03.251Z,-3.40
2018-02-25T18:51:34.597Z,-3.40
2018-02-25T18:54:03.483Z,-3.40
2018-02-25T18:56:37.208Z,-3.60
2018-02-25T18:59:32.040Z,-3.60
2018-02-25T19:05:03.653Z,-3.60
2018-02-25T19:07:35.442Z,-3.70
2018-02-25T19:10:03.230Z,-3.70
2018-02-25T19:12:34.379Z,-3.70
2018-02-25T19:15:04.221Z,-3.60
2018-02-25T19:17:34.472Z,-3.70
2018-02-25T19:20:03.771Z,-3.60
2018-02-25T19:28:46.364Z,-3.70
2018-02-25T19:31:33.643Z,-3.80
2018-02-25T19:34:05.024Z,-3.90
2018-02-25T19:42:34.540Z,-4.00
2018-02-25T19:45:03.355Z,-4.00
2018-02-25T19:53:36.794Z,-4.20
2018-02-25T20:11:03.376Z,-4.20
2018-02-25T20:19:32.354Z,-4.20
2018-02-25T20:22:04.476Z,-4.20
2018-02-25T20:24:34.175Z,-4.20
2018-02-25T20:27:04.684Z,-4.20
2018-02-25T20:29:34.477Z,-4.20
2018-02-25T20:32:03.586Z,-4.20
2018-02-25T20:37:33.348Z,-4.30
2018-02-25T20:43:03.837Z,-4.30
2018-02-25T20:51:34.253Z,-4.60
2018-02-25T20:54:06.131Z,-4.60
2018-02-25T21:02:35.333Z,-4.80
2018-02-25T21:08:03.540Z,-4.70
2018-02-25T21:10:36.807Z,-4.60
2018-02-25T21:13:04.379Z,-4.60
2018-02-25T21:21:39.805Z,-4.40
2018-02-25T21:24:07.340Z,-4.50
2018-02-25T21:41:33.248Z,-4.30
2018-02-25T21:59:02.338Z,-4.30
2018-02-25T22:02:02.212Z,-4.30
2018-02-25T22:04:33.879Z,-4.30
2018-02-25T22:19:04.125Z,-5.00
2018-02-25T22:21:33.300Z,-5.00
2018-02-25T22:24:04.928Z,-5.10
2018-02-25T22:44:03.023Z,-5.30
2018-02-25T23:08:35.000Z,-4.70
2018-02-25T23:18:33.426Z,-4.80
2018-02-25T23:35:42.921Z,-4.80
2018-02-25T23:38:33.361Z,-4.80
2018-02-25T23:41:03.509Z,-4.80
2018-02-25T23:46:33.841Z,-4.80
2018-02-25T23:49:12.713Z,-4.90
2018-02-25T23:54:34.395Z,-4.90
2018-02-25T23:57:06.794Z,-4.90
